Time;durP1;ratioP1;P1;durP2;ratioP2;P2;SDS_P1;SDS_P2;PMS_P1;PMS_P2;Temp;Humidity;BMP_temperature;BMP_pressure;BME280_temperature;BME280_humidity;BME280_pressure;Samples;Min_cycle;Max_cycle;Signal;HPM_P1;HPM_P2
2022/01/09 00:01:06;;;;;;;15.53;9.20;;;5.20;99.90;;;;;;5033186;28;20244;-78
2022/01/09 00:03:33;;;;;;;16.50;9.80;;;5.20;99.90;;;;;;5032919;28;20203;-79
2022/01/09 00:06:00;;;;;;;14.37;9.60;;;5.20;99.90;;;;;;5003033;28;20229;-80
2022/01/09 00:08:26;;;;;;;15.13;9.43;;;5.20;99.90;;;;;;5035186;28;20203;-78
2022/01/09 00:10:53;;;;;;;13.33;8.90;;;5.20;99.90;;;;;;5032449;28;20777;-79
2022/01/09 00:13:20;;;;;;;12.97;9.20;;;5.20;99.90;;;;;;5036778;28;20296;-80
2022/01/09 00:15:47;;;;;;;13.03;9.03;;;5.20;99.90;;;;;;5024761;28;20305;-79
2022/01/09 00:18:13;;;;;;;14.90;9.67;;;5.20;99.90;;;;;;5034566;28;20207;-79
2022/01/09 00:20:40;;;;;;;12.43;8.67;;;5.20;99.90;;;;;;5025514;28;20230;-79
2022/01/09 00:23:07;;;;;;;13.13;8.90;;;5.20;99.90;;;;;;5034514;28;20219;-80
2022/01/09 00:25:34;;;;;;;14.37;9.17;;;5.20;99.90;;;;;;5031617;28;20223;-78
2022/01/09 00:28:00;;;;;;;14.63;8.97;;;5.20;99.90;;;;;;5033390;28;20193;-79
2022/01/09 00:30:27;;;;;;;15.73;10.13;;;5.20;99.90;;;;;;5030581;28;20297;-79
2022/01/09 00:32:55;;;;;;;15.37;9.30;;;5.20;99.90;;;;;;5030772;28;20240;-79
2022/01/09 00:35:22;;;;;;;12.77;9.07;;;5.20;99.90;;;;;;5031563;28;20317;-78
2022/01/09 00:37:49;;;;;;;15.83;10.97;;;5.20;99.90;;;;;;5028715;28;20231;-80
2022/01/09 00:40:17;;;;;;;14.70;9.77;;;5.20;99.90;;;;;;5030152;28;20214;-78
2022/01/09 00:42:44;;;;;;;17.97;9.67;;;5.20;99.90;;;;;;5035580;28;20648;-78
2022/01/09 00:45:12;;;;;;;16.30;9.93;;;5.20;99.90;;;;;;5028221;28;20218;-79
2022/01/09 00:47:40;;;;;;;15.93;9.27;;;5.20;99.90;;;;;;5031639;28;20225;-79
2022/01/09 00:50:08;;;;;;;14.13;9.10;;;5.20;99.90;;;;;;5022027;28;20319;-78
2022/01/09 00:52:35;;;;;;;17.23;9.97;;;5.20;99.90;;;;;;5025889;28;20275;-79
2022/01/09 00:55:12;;;;;;;15.30;9.10;;;5.20;99.90;;;;;;5032032;28;20306;-78
2022/01/09 00:57:39;;;;;;;16.20;9.53;;;5.20;99.90;;;;;;5027196;28;20265;-80
2022/01/09 01:00:08;;;;;;;18.00;10.10;;;5.20;99.90;;;;;;5018334;28;20207;-81
2022/01/09 01:02:34;;;;;;;17.13;10.67;;;5.20;99.90;;;;;;5030600;28;20670;-79
2022/01/09 01:05:02;;;;;;;16.83;10.03;;;5.20;99.90;;;;;;5024458;28;20224;-80
2022/01/09 01:07:29;;;;;;;17.17;10.00;;;5.20;99.90;;;;;;5031858;28;20200;-78
2022/01/09 01:09:57;;;;;;;16.10;10.23;;;5.20;99.90;;;;;;5039063;28;20288;-79
2022/01/09 01:12:26;;;;;;;14.23;8.53;;;5.20;99.90;;;;;;5027783;28;20218;-80
2022/01/09 01:14:53;;;;;;;12.40;7.57;;;5.20;99.90;;;;;;5001701;28;20293;-79
2022/01/09 01:17:21;;;;;;;12.17;7.03;;;5.20;99.90;;;;;;5034283;28;20206;-79
2022/01/09 01:19:47;;;;;;;12.57;6.53;;;5.20;99.90;;;;;;5038813;28;20606;-78
2022/01/09 01:22:30;;;;;;;8.70;5.97;;;5.20;99.90;;;;;;5038994;28;20210;-79
2022/01/09 01:24:58;;;;;;;11.17;6.20;;;5.20;99.90;;;;;;5035146;28;20203;-80
2022/01/09 01:27:25;;;;;;;8.73;5.77;;;5.30;99.90;;;;;;5033638;28;20210;-78
2022/01/09 01:29:52;;;;;;;10.87;6.53;;;5.30;99.90;;;;;;5033249;28;20232;-80
2022/01/09 01:32:19;;;;;;;8.70;5.63;;;5.30;99.90;;;;;;5029752;28;20214;-78
2022/01/09 01:34:45;;;;;;;9.30;5.57;;;5.20;99.90;;;;;;5029386;28;20242;-81
2022/01/09 01:37:13;;;;;;;6.97;4.97;;;5.30;99.90;;;;;;5033221;28;20221;-80
2022/01/09 01:39:40;;;;;;;8.13;5.17;;;5.30;99.90;;;;;;5030557;28;20290;-81
2022/01/09 01:42:07;;;;;;;7.43;4.67;;;5.30;99.90;;;;;;5035137;28;20285;-80
2022/01/09 01:44:41;;;;;;;5.60;3.17;;;5.40;99.90;;;;;;5030639;28;20229;-79
2022/01/09 01:47:08;;;;;;;4.00;2.33;;;5.40;99.90;;;;;;5039573;28;20226;-80
2022/01/09 01:49:35;;;;;;;2.43;2.00;;;5.40;99.90;;;;;;5031851;28;20240;-79
2022/01/09 01:52:05;;;;;;;2.90;1.80;;;5.40;99.90;;;;;;5027832;28;20629;-79
2022/01/09 01:54:33;;;;;;;4.77;2.27;;;5.50;99.90;;;;;;5031755;28;20299;-78
2022/01/09 01:57:00;;;;;;;4.60;2.20;;;5.50;99.90;;;;;;5016309;28;20222;-79
2022/01/09 01:59:27;;;;;;;5.53;1.70;;;5.60;99.90;;;;;;5009018;28;20291;-79
2022/01/09 02:01:54;;;;;;;5.63;1.53;;;5.60;99.90;;;;;;5017518;28;20209;-80
2022/01/09 02:04:20;;;;;;;6.50;1.70;;;5.70;99.90;;;;;;5008974;28;20301;-78
2022/01/09 02:06:47;;;;;;;6.43;2.10;;;5.70;99.90;;;;;;5004839;28;20321;-79
2022/01/09 02:09:14;;;;;;;8.33;2.13;;;5.70;99.90;;;;;;5003449;28;20226;-79
2022/01/09 02:11:41;;;;;;;16.70;2.93;;;5.80;99.90;;;;;;5011033;28;20202;-79
2022/01/09 02:14:08;;;;;;;22.47;3.93;;;5.80;99.90;;;;;;5010472;28;20218;-78
2022/01/09 02:16:43;;;;;;;13.90;2.90;;;5.90;99.90;;;;;;5011222;28;20293;-77
2022/01/09 02:19:14;;;;;;;16.50;2.80;;;5.90;99.90;;;;;;5003756;28;20213;-75
2022/01/09 02:21:44;;;;;;;9.80;2.27;;;5.90;99.90;;;;;;4984639;28;20208;-77
2022/01/09 02:24:12;;;;;;;7.00;2.50;;;5.90;99.90;;;;;;5009864;28;20711;-76
2022/01/09 02:26:40;;;;;;;9.17;1.90;;;5.90;99.90;;;;;;5008991;28;20239;-75
2022/01/09 02:29:07;;;;;;;8.13;2.10;;;5.90;99.90;;;;;;5005142;28;20400;-76
2022/01/09 02:31:35;;;;;;;13.43;2.17;;;5.90;99.90;;;;;;5008189;28;20208;-76
2022/01/09 02:34:02;;;;;;;10.60;2.33;;;5.90;99.90;;;;;;5008190;28;20274;-76
2022/01/09 02:36:32;;;;;;;12.70;3.20;;;5.90;99.90;;;;;;5008881;28;20207;-75
2022/01/09 02:38:59;;;;;;;22.60;3.83;;;5.90;99.90;;;;;;5023081;28;20203;-76
2022/01/09 02:41:27;;;;;;;16.00;3.00;;;5.90;99.90;;;;;;4990106;28;20329;-75
2022/01/09 02:43:54;;;;;;;14.30;3.97;;;5.90;99.90;;;;;;5001805;28;20225;-76
2022/01/09 02:46:45;;;;;;;17.30;2.70;;;6.00;99.90;;;;;;5001596;28;20234;-76
2022/01/09 02:49:12;;;;;;;13.80;3.23;;;6.00;99.90;;;;;;5005368;28;20218;-75
2022/01/09 02:51:40;;;;;;;17.60;2.70;;;5.90;99.90;;;;;;5011272;28;20218;-75
2022/01/09 02:55:06;;;;;;;15.40;3.13;;;6.00;99.90;;;;;;5006073;28;20747;-75
2022/01/09 02:56:59;;;;;;;21.83;3.20;;;6.00;99.90;;;;;;5026555;28;20230;-75
2022/01/09 02:59:26;;;;;;;18.33;3.07;;;6.00;99.90;;;;;;5039327;28;20208;-75
2022/01/09 03:01:53;;;;;;;28.27;4.43;;;6.00;99.90;;;;;;5038861;28;20241;-75
2022/01/09 03:04:20;;;;;;;27.10;4.10;;;6.10;99.90;;;;;;5038533;28;20300;-75
2022/01/09 03:06:47;;;;;;;38.47;5.20;;;6.10;99.90;;;;;;5035299;28;20227;-74
2022/01/09 03:09:14;;;;;;;33.30;4.47;;;6.10;99.90;;;;;;5039211;28;20199;-76
2022/01/09 03:11:41;;;;;;;30.50;5.93;;;6.20;99.90;;;;;;5033617;28;20218;-76
2022/01/09 03:14:07;;;;;;;29.80;4.93;;;6.20;99.90;;;;;;5008053;28;20752;-76
2022/01/09 03:16:35;;;;;;;38.97;5.80;;;6.30;99.90;;;;;;5026603;28;20245;-75
2022/01/09 03:19:02;;;;;;;26.67;5.20;;;6.30;99.90;;;;;;5034297;28;20208;-75
2022/01/09 03:21:30;;;;;;;31.93;5.30;;;6.30;99.90;;;;;;5032558;28;20210;-74
2022/01/09 03:23:57;;;;;;;33.73;4.93;;;6.30;99.90;;;;;;5039118;28;20220;-74
2022/01/09 03:26:24;;;;;;;35.50;6.20;;;6.30;99.90;;;;;;5034368;28;20301;-74
2022/01/09 03:28:50;;;;;;;24.97;5.30;;;6.30;99.90;;;;;;5040597;28;20206;-75
2022/01/09 03:31:17;;;;;;;40.40;5.23;;;6.30;99.90;;;;;;5034561;28;20194;-76
2022/01/09 03:33:44;;;;;;;33.30;4.90;;;6.30;99.90;;;;;;5040123;28;20233;-75
2022/01/09 03:36:11;;;;;;;31.30;4.80;;;6.30;99.90;;;;;;5044286;28;20317;-75
2022/01/09 03:38:37;;;;;;;28.57;5.27;;;6.30;99.90;;;;;;5050634;28;20221;-73
2022/01/09 03:41:04;;;;;;;23.87;4.33;;;6.30;99.90;;;;;;5039097;28;20302;-75
2022/01/09 03:43:31;;;;;;;27.30;5.37;;;6.30;99.90;;;;;;5035606;28;20694;-75
2022/01/09 03:45:58;;;;;;;29.90;5.33;;;6.30;99.90;;;;;;5029394;28;20242;-77
2022/01/09 03:48:24;;;;;;;30.10;4.90;;;6.20;99.90;;;;;;5032869;28;20209;-75
2022/01/09 03:50:52;;;;;;;24.83;4.27;;;6.20;99.90;;;;;;5036701;28;20307;-75
2022/01/09 03:53:19;;;;;;;23.83;4.27;;;6.20;99.90;;;;;;5033875;28;20827;-75
2022/01/09 03:55:45;;;;;;;25.63;4.73;;;6.20;99.90;;;;;;5031693;28;20289;-75
2022/01/09 03:58:12;;;;;;;24.87;4.40;;;6.20;99.90;;;;;;5029499;28;20233;-74
2022/01/09 04:00:40;;;;;;;25.80;3.80;;;6.20;99.90;;;;;;5030369;28;20206;-75
2022/01/09 04:03:07;;;;;;;24.20;3.77;;;6.10;99.90;;;;;;5030788;28;20523;-75
2022/01/09 04:05:34;;;;;;;25.23;3.93;;;6.10;99.90;;;;;;5031870;28;20584;-74
2022/01/09 04:08:01;;;;;;;21.83;4.00;;;6.10;99.90;;;;;;5051232;28;20232;-74
2022/01/09 04:10:43;;;;;;;14.77;3.60;;;6.10;99.90;;;;;;5026078;28;20221;-75
2022/01/09 04:13:14;;;;;;;26.00;4.07;;;6.10;99.90;;;;;;5033629;28;20209;-75
2022/01/09 04:15:46;;;;;;;22.00;3.63;;;6.10;99.90;;;;;;5025010;28;20350;-75
2022/01/09 04:18:21;;;;;;;15.53;3.33;;;6.10;99.90;;;;;;5034871;28;20221;-75
2022/01/09 04:20:51;;;;;;;19.40;3.70;;;6.00;99.90;;;;;;5031587;28;20226;-76
2022/01/09 04:23:19;;;;;;;18.30;3.17;;;6.00;99.90;;;;;;5032191;28;20297;-75
2022/01/09 04:25:47;;;;;;;17.67;3.20;;;6.00;99.90;;;;;;5028295;28;20262;-74
2022/01/09 04:28:15;;;;;;;18.37;3.43;;;5.90;99.90;;;;;;5028936;28;20782;-75
2022/01/09 04:30:42;;;;;;;15.40;2.60;;;5.90;99.90;;;;;;5030394;28;20210;-75
2022/01/09 04:33:10;;;;;;;16.13;3.30;;;5.90;99.90;;;;;;5030655;28;20289;-76
2022/01/09 04:35:38;;;;;;;14.73;2.73;;;5.90;99.90;;;;;;5028366;28;20226;-76
2022/01/09 04:38:05;;;;;;;13.10;2.90;;;5.90;99.90;;;;;;5031624;28;20205;-76
2022/01/09 04:40:32;;;;;;;16.37;2.93;;;5.90;99.90;;;;;;5024405;28;20191;-75
2022/01/09 04:43:02;;;;;;;15.07;2.87;;;5.90;99.90;;;;;;5034605;28;20206;-76
2022/01/09 04:45:32;;;;;;;11.90;2.80;;;5.80;99.90;;;;;;5031531;28;20222;-75
2022/01/09 04:48:02;;;;;;;15.07;3.10;;;5.80;99.90;;;;;;5034156;28;20616;-76
2022/01/09 04:50:32;;;;;;;10.73;2.13;;;5.80;99.90;;;;;;5032705;28;20258;-74
2022/01/09 04:53:05;;;;;;;15.33;2.77;;;5.70;99.90;;;;;;5041115;28;20293;-75
2022/01/09 04:55:34;;;;;;;13.30;2.63;;;5.80;99.90;;;;;;5030643;28;20364;-74
2022/01/09 04:58:01;;;;;;;13.60;2.87;;;5.70;99.90;;;;;;5034883;28;20204;-75
2022/01/09 05:00:28;;;;;;;14.33;4.00;;;5.80;99.90;;;;;;5037294;28;20370;-75
2022/01/09 05:02:55;;;;;;;21.53;3.67;;;5.70;99.90;;;;;;5031942;28;20745;-74
2022/01/09 05:05:22;;;;;;;21.07;3.57;;;5.80;99.90;;;;;;5030951;28;20231;-75
2022/01/09 05:07:49;;;;;;;18.63;3.23;;;5.80;99.90;;;;;;5048176;28;20327;-74
2022/01/09 05:10:16;;;;;;;14.27;3.57;;;5.80;99.90;;;;;;5034023;28;20224;-74
2022/01/09 05:12:43;;;;;;;20.40;3.20;;;5.80;99.90;;;;;;5028729;28;20245;-75
2022/01/09 05:15:13;;;;;;;23.77;3.73;;;5.80;99.90;;;;;;5027906;28;20616;-74
2022/01/09 05:17:39;;;;;;;26.97;4.03;;;5.80;99.90;;;;;;5035036;28;20293;-74
2022/01/09 05:20:07;;;;;;;20.27;4.10;;;5.80;99.90;;;;;;5043523;28;20213;-74
2022/01/09 05:22:34;;;;;;;19.73;5.10;;;5.80;99.90;;;;;;5021004;28;20233;-74
2022/01/09 05:25:06;;;;;;;20.87;4.77;;;5.80;99.90;;;;;;5026592;28;20289;-75
2022/01/09 05:27:35;;;;;;;24.67;5.90;;;5.80;99.90;;;;;;5011491;28;20242;-73
2022/01/09 05:30:07;;;;;;;19.47;4.20;;;5.80;99.90;;;;;;5028895;28;20204;-74
2022/01/09 05:32:34;;;;;;;23.60;3.77;;;5.80;99.90;;;;;;5033344;28;20233;-75
2022/01/09 05:35:01;;;;;;;27.00;4.00;;;5.70;99.90;;;;;;5023601;28;20221;-74
2022/01/09 05:37:29;;;;;;;19.60;3.73;;;5.80;99.90;;;;;;5020077;28;20207;-75
2022/01/09 05:39:56;;;;;;;17.40;3.33;;;5.70;99.90;;;;;;5026421;28;20290;-74
2022/01/09 05:42:23;;;;;;;19.27;3.80;;;5.70;99.90;;;;;;5030575;28;20378;-73
2022/01/09 05:44:50;;;;;;;18.50;3.43;;;5.70;99.90;;;;;;5025424;28;20206;-74
2022/01/09 05:47:17;;;;;;;30.83;4.27;;;5.70;99.90;;;;;;5032430;28;20817;-75
2022/01/09 05:49:43;;;;;;;25.43;4.40;;;5.70;99.90;;;;;;5028034;28;20355;-73
2022/01/09 05:52:10;;;;;;;22.10;3.70;;;5.70;99.90;;;;;;5029641;28;20200;-74
2022/01/09 05:54:37;;;;;;;21.10;3.10;;;5.70;99.90;;;;;;5027405;28;20237;-75
2022/01/09 05:57:05;;;;;;;19.97;3.70;;;5.70;99.90;;;;;;5026416;28;20280;-75
2022/01/09 05:59:31;;;;;;;17.27;3.30;;;5.80;99.90;;;;;;5025930;28;20304;-74
2022/01/09 06:01:59;;;;;;;28.40;3.70;;;5.80;99.90;;;;;;5030125;28;20203;-75
2022/01/09 06:04:26;;;;;;;18.00;3.87;;;5.70;99.90;;;;;;5029165;28;20215;-75
2022/01/09 06:06:54;;;;;;;22.83;4.03;;;5.70;99.90;;;;;;5028964;28;20245;-74
2022/01/09 06:09:21;;;;;;;22.83;4.27;;;5.80;99.90;;;;;;5021436;28;20242;-75
2022/01/09 06:11:48;;;;;;;18.73;3.30;;;5.70;99.90;;;;;;5033430;28;20229;-74
2022/01/09 06:14:15;;;;;;;17.57;3.17;;;5.70;99.90;;;;;;5028323;28;20210;-75
2022/01/09 06:16:42;;;;;;;16.80;3.37;;;5.70;99.90;;;;;;5024065;28;20678;-75
2022/01/09 06:19:10;;;;;;;13.50;3.40;;;5.70;99.90;;;;;;5032588;28;20205;-75
2022/01/09 06:21:37;;;;;;;20.90;4.20;;;5.70;99.90;;;;;;5020047;28;20658;-75
2022/01/09 06:24:04;;;;;;;16.80;3.33;;;5.70;99.90;;;;;;5024081;28;20228;-76
2022/01/09 06:26:31;;;;;;;14.13;3.93;;;5.60;99.90;;;;;;5027002;28;20209;-76
2022/01/09 06:28:58;;;;;;;18.20;3.57;;;5.60;99.90;;;;;;5031780;28;20222;-74
2022/01/09 06:31:24;;;;;;;20.00;3.93;;;5.60;99.90;;;;;;5030105;28;20290;-74
2022/01/09 06:33:51;;;;;;;20.97;3.70;;;5.60;99.90;;;;;;5031910;28;20206;-76
2022/01/09 06:36:18;;;;;;;17.20;3.63;;;5.60;99.90;;;;;;5030378;28;20244;-74
2022/01/09 06:38:44;;;;;;;13.63;3.43;;;5.50;99.90;;;;;;5032132;28;20684;-74
2022/01/09 06:41:11;;;;;;;25.30;4.83;;;5.50;99.90;;;;;;5031720;28;20616;-74
2022/01/09 06:43:38;;;;;;;27.00;3.90;;;5.60;99.90;;;;;;5029829;28;20204;-73
2022/01/09 06:46:05;;;;;;;18.83;4.13;;;5.60;99.90;;;;;;5029816;28;20213;-74
2022/01/09 06:48:32;;;;;;;22.40;4.00;;;5.60;99.90;;;;;;5029417;28;20246;-74
2022/01/09 06:50:58;;;;;;;11.70;3.63;;;5.60;99.90;;;;;;5026384;28;20226;-74
2022/01/09 06:53:25;;;;;;;18.90;3.67;;;5.60;99.90;;;;;;5025472;28;20211;-74
2022/01/09 06:55:52;;;;;;;18.00;3.87;;;5.60;99.90;;;;;;5032940;28;20238;-74
2022/01/09 06:58:21;;;;;;;19.33;3.40;;;5.60;99.90;;;;;;5031461;28;20205;-74
2022/01/09 07:00:48;;;;;;;14.23;3.13;;;5.60;99.90;;;;;;5032438;28;20220;-74
2022/01/09 07:03:15;;;;;;;21.73;3.97;;;5.60;99.90;;;;;;5035877;28;20284;-75
2022/01/09 07:05:42;;;;;;;20.83;3.17;;;5.50;99.90;;;;;;5029903;28;20227;-74
2022/01/09 07:08:09;;;;;;;12.90;3.50;;;5.50;99.90;;;;;;5032701;28;20232;-75
2022/01/09 07:10:36;;;;;;;19.00;3.80;;;5.50;99.90;;;;;;5031410;28;20211;-74
2022/01/09 07:13:05;;;;;;;13.63;3.57;;;5.40;99.90;;;;;;5026048;28;20244;-74
2022/01/09 07:15:32;;;;;;;14.17;4.00;;;5.40;99.90;;;;;;5029049;28;20213;-74
2022/01/09 07:17:58;;;;;;;10.53;3.70;;;5.30;99.90;;;;;;5030580;28;20212;-76
2022/01/09 07:20:29;;;;;;;15.07;4.10;;;5.30;99.90;;;;;;5029182;28;20733;-74
2022/01/09 07:22:56;;;;;;;11.73;3.93;;;5.20;99.90;;;;;;5033881;28;20202;-74
2022/01/09 07:25:23;;;;;;;19.37;3.40;;;5.20;99.90;;;;;;5014994;28;20297;-74
2022/01/09 07:27:49;;;;;;;12.57;3.37;;;5.20;99.90;;;;;;5026599;28;20259;-75
2022/01/09 07:30:16;;;;;;;12.17;3.80;;;5.20;99.90;;;;;;5030749;28;20228;-74
2022/01/09 07:32:43;;;;;;;16.10;3.50;;;5.20;99.90;;;;;;5030890;28;20301;-75
2022/01/09 07:35:10;;;;;;;14.60;3.40;;;5.10;99.90;;;;;;5043352;28;20217;-75
2022/01/09 07:37:37;;;;;;;11.20;4.63;;;5.10;99.90;;;;;;5029115;28;20197;-75
2022/01/09 07:40:05;;;;;;;13.43;3.50;;;5.10;99.90;;;;;;5028059;28;20291;-74
2022/01/09 07:42:31;;;;;;;15.63;3.80;;;5.10;99.90;;;;;;5025140;28;20285;-74
2022/01/09 07:44:59;;;;;;;17.80;4.20;;;5.10;99.90;;;;;;5018655;28;20665;-74
2022/01/09 07:47:26;;;;;;;16.60;4.20;;;5.10;99.90;;;;;;5031166;28;20671;-74
2022/01/09 07:49:53;;;;;;;12.63;3.63;;;5.10;99.90;;;;;;5031556;28;20629;-74
2022/01/09 07:52:19;;;;;;;22.70;3.90;;;5.10;99.90;;;;;;5035661;28;20296;-75
2022/01/09 07:54:46;;;;;;;17.90;4.00;;;5.10;99.90;;;;;;5024267;28;20300;-75
2022/01/09 07:57:13;;;;;;;13.10;4.00;;;5.20;99.90;;;;;;5031081;28;20693;-74
2022/01/09 07:59:41;;;;;;;14.53;3.57;;;5.20;99.90;;;;;;5030852;28;20250;-74
2022/01/09 08:02:09;;;;;;;8.70;3.27;;;5.10;99.90;;;;;;5031430;28;20260;-73
2022/01/09 08:04:36;;;;;;;14.20;3.27;;;5.10;99.90;;;;;;5030323;28;20230;-73
2022/01/09 08:07:05;;;;;;;13.27;3.00;;;5.20;99.90;;;;;;5038247;28;20626;-74
2022/01/09 08:09:32;;;;;;;13.33;2.83;;;5.10;99.90;;;;;;5034737;28;20296;-74
2022/01/09 08:11:59;;;;;;;13.43;3.53;;;5.20;99.90;;;;;;5038933;28;20335;-74
2022/01/09 08:14:26;;;;;;;14.00;3.30;;;5.20;99.90;;;;;;5019380;28;20248;-73
2022/01/09 08:16:53;;;;;;;15.83;3.80;;;5.20;99.90;;;;;;5016877;28;20216;-73
2022/01/09 08:19:19;;;;;;;10.63;3.47;;;5.20;99.90;;;;;;5041985;28;20688;-74
2022/01/09 08:21:46;;;;;;;13.17;3.90;;;5.20;99.90;;;;;;5033825;28;20323;-75
2022/01/09 08:24:15;;;;;;;12.40;3.57;;;5.10;99.90;;;;;;5027394;28;20248;-75
2022/01/09 08:26:42;;;;;;;14.40;4.33;;;5.10;99.90;;;;;;5032404;28;21571;-75
2022/01/09 08:29:09;;;;;;;7.17;3.53;;;5.10;99.90;;;;;;5022632;28;20320;-74
2022/01/09 08:31:36;;;;;;;11.57;2.90;;;5.10;99.90;;;;;;5014299;28;20285;-75
2022/01/09 08:34:03;;;;;;;9.33;3.83;;;5.00;99.90;;;;;;5042765;28;20662;-75
2022/01/09 08:36:32;;;;;;;6.40;2.87;;;5.00;99.90;;;;;;5016095;28;20201;-74
2022/01/09 08:39:00;;;;;;;7.73;2.43;;;5.00;99.90;;;;;;5031817;28;20217;-75
2022/01/09 08:41:26;;;;;;;12.33;2.83;;;5.00;99.90;;;;;;5034148;28;20663;-75
2022/01/09 08:43:53;;;;;;;12.63;3.10;;;5.00;99.90;;;;;;5022806;28;20209;-75
2022/01/09 08:46:20;;;;;;;13.60;3.73;;;5.00;99.90;;;;;;5018564;28;20982;-74
2022/01/09 08:48:47;;;;;;;9.60;3.23;;;4.90;99.90;;;;;;5026916;28;20367;-75
2022/01/09 08:51:14;;;;;;;7.30;2.67;;;5.00;99.90;;;;;;5013995;28;20248;-75
2022/01/09 08:53:49;;;;;;;9.93;2.57;;;4.90;99.90;;;;;;5025478;28;20562;-75
2022/01/09 08:56:21;;;;;;;12.30;3.37;;;4.90;99.90;;;;;;5031282;28;20254;-75
2022/01/09 08:58:48;;;;;;;9.77;2.90;;;4.90;99.90;;;;;;5003803;28;20626;-75
2022/01/09 09:01:34;;;;;;;8.73;2.97;;;4.90;99.90;;;;;;5030768;28;20317;-75
2022/01/09 09:04:01;;;;;;;9.77;2.73;;;4.90;99.90;;;;;;5023350;28;20271;-75
2022/01/09 09:06:28;;;;;;;13.37;3.97;;;4.80;99.90;;;;;;5023589;28;20658;-75
2022/01/09 09:08:55;;;;;;;8.43;2.77;;;4.90;99.90;;;;;;5028823;28;20311;-75
2022/01/09 09:11:21;;;;;;;10.00;2.87;;;4.90;99.90;;;;;;5027443;28;20709;-76
2022/01/09 09:13:48;;;;;;;7.80;3.70;;;4.90;99.90;;;;;;5030465;28;20710;-74
2022/01/09 09:16:16;;;;;;;16.40;3.80;;;4.90;99.90;;;;;;5002603;28;20217;-76
2022/01/09 09:18:47;;;;;;;10.67;3.27;;;4.80;99.90;;;;;;5029968;28;20206;-75
2022/01/09 09:21:14;;;;;;;9.17;3.77;;;4.90;99.90;;;;;;5032753;28;20218;-74
2022/01/09 09:23:41;;;;;;;10.20;3.33;;;5.00;99.90;;;;;;5026601;28;20208;-76
2022/01/09 09:26:09;;;;;;;15.30;3.90;;;5.00;99.90;;;;;;5029710;28;20248;-76
2022/01/09 09:28:36;;;;;;;11.97;3.43;;;5.10;99.90;;;;;;5028579;28;20257;-75
2022/01/09 09:31:06;;;;;;;11.67;3.90;;;5.10;99.90;;;;;;5033224;28;20257;-75
2022/01/09 09:33:33;;;;;;;17.13;5.67;;;5.10;99.90;;;;;;5025035;28;20304;-75
2022/01/09 09:36:01;;;;;;;17.00;4.87;;;5.10;99.90;;;;;;5031217;28;20247;-76
2022/01/09 09:38:30;;;;;;;12.40;3.30;;;5.20;99.90;;;;;;5027265;28;20213;-77
2022/01/09 09:40:57;;;;;;;10.33;3.70;;;5.20;99.90;;;;;;5029068;28;20565;-76
2022/01/09 09:43:25;;;;;;;7.50;3.53;;;5.20;99.90;;;;;;5021072;28;20204;-76
2022/01/09 09:45:52;;;;;;;11.17;3.37;;;5.20;99.90;;;;;;5032547;28;20296;-75
2022/01/09 09:48:22;;;;;;;15.50;5.97;;;5.30;99.90;;;;;;5025009;28;20695;-75
2022/01/09 09:50:49;;;;;;;12.17;5.00;;;5.30;99.90;;;;;;5028229;28;20223;-75
2022/01/09 09:53:16;;;;;;;16.23;6.63;;;5.30;99.90;;;;;;5028087;28;20205;-75
2022/01/09 09:55:45;;;;;;;21.67;11.77;;;5.40;99.90;;;;;;4998250;28;20234;-75
2022/01/09 09:58:12;;;;;;;10.57;4.40;;;5.40;99.90;;;;;;5003840;28;20204;-74
2022/01/09 10:00:39;;;;;;;10.83;4.27;;;5.40;99.90;;;;;;5005494;28;20711;-75
2022/01/09 10:03:07;;;;;;;10.73;3.20;;;5.50;99.90;;;;;;5015386;28;20206;-75
2022/01/09 10:05:36;;;;;;;10.10;4.50;;;5.50;99.90;;;;;;5009608;28;20269;-75
2022/01/09 10:08:15;;;;;;;13.87;3.27;;;5.50;99.90;;;;;;5025576;28;20819;-76
2022/01/09 10:10:42;;;;;;;12.50;3.00;;;5.50;99.90;;;;;;5013562;28;20205;-76
2022/01/09 10:13:19;;;;;;;13.47;3.27;;;5.50;99.90;;;;;;5011170;28;20930;-75
2022/01/09 10:15:47;;;;;;;15.90;3.63;;;5.60;99.90;;;;;;5011765;28;20298;-75
2022/01/09 10:18:43;;;;;;;9.07;3.23;;;5.50;99.90;;;;;;5010873;28;20285;-74
2022/01/09 10:21:19;;;;;;;14.57;3.20;;;5.40;99.90;;;;;;5019988;28;20566;-76
2022/01/09 10:23:56;;;;;;;18.47;3.73;;;5.40;99.90;;;;;;5008431;28;20222;-76
2022/01/09 10:26:23;;;;;;;10.77;4.10;;;5.30;99.90;;;;;;5006804;28;20281;-75
2022/01/09 10:28:50;;;;;;;10.60;4.03;;;5.30;99.90;;;;;;5007263;28;20329;-76
2022/01/09 10:31:19;;;;;;;7.47;3.20;;;5.30;99.90;;;;;;5008957;28;20259;-75
2022/01/09 10:34:07;;;;;;;14.50;4.63;;;5.30;99.90;;;;;;5005374;28;20642;-76
2022/01/09 10:36:43;;;;;;;8.50;3.87;;;5.40;99.90;;;;;;5010383;28;20216;-75
2022/01/09 10:39:16;;;;;;;13.47;4.00;;;5.40;99.90;;;;;;5015318;28;20204;-75
2022/01/09 10:42:03;;;;;;;9.80;4.30;;;5.50;99.90;;;;;;5007418;28;20209;-75
2022/01/09 10:44:35;;;;;;;10.30;6.03;;;5.60;99.90;;;;;;5011222;28;20244;-75
2022/01/09 10:47:45;;;;;;;12.63;4.37;;;5.60;99.90;;;;;;4201971;22;25624457;-94
2022/01/09 10:50:37;;;;;;;9.47;4.53;;;5.60;99.90;;;;;;5056314;28;20222;-91
2022/01/09 10:53:19;;;;;;;9.70;4.63;;;5.70;99.90;;;;;;5040358;28;20197;-92
2022/01/09 10:56:07;;;;;;;12.47;3.60;;;5.60;99.90;;;;;;5040152;28;20201;-90
2022/01/09 10:58:43;;;;;;;9.87;4.10;;;5.60;99.90;;;;;;5025568;28;20197;-92
2022/01/09 11:01:23;;;;;;;16.30;3.57;;;5.60;99.90;;;;;;5049511;28;20214;-91
2022/01/09 11:04:02;;;;;;;9.23;3.00;;;5.60;99.90;;;;;;5038175;28;20205;-89
2022/01/09 11:06:40;;;;;;;13.30;3.13;;;5.60;99.90;;;;;;5037884;28;20221;-90
2022/01/09 11:09:11;;;;;;;4.37;1.47;;;5.60;99.90;;;;;;5035180;28;20672;-90
2022/01/09 11:12:01;;;;;;;5.47;2.50;;;5.40;99.90;;;;;;5063088;28;20263;-91
2022/01/09 11:14:49;;;;;;;7.57;3.30;;;5.30;99.90;;;;;;5049089;28;20214;-91
2022/01/09 11:17:42;;;;;;;4.37;2.20;;;5.10;99.90;;;;;;5044145;28;20772;-91
2022/01/09 11:20:17;;;;;;;4.73;1.60;;;4.90;99.90;;;;;;5041665;28;20582;-91
2022/01/09 11:27:03;;;;;;;4.80;3.60;;;4.90;99.90;;;;;;5045521;28;20227;-92
2022/01/09 11:29:38;;;;;;;3.77;2.53;;;4.90;99.90;;;;;;5022053;28;20557;-92
2022/01/09 11:32:24;;;;;;;6.27;2.83;;;4.90;99.90;;;;;;5033786;28;21061;-93
2022/01/09 11:35:14;;;;;;;6.37;4.03;;;4.90;99.90;;;;;;5026771;28;20238;-92
2022/01/09 11:38:04;;;;;;;6.57;3.83;;;4.80;99.90;;;;;;5048256;28;20284;-91
2022/01/09 11:40:38;;;;;;;6.60;2.90;;;4.90;99.90;;;;;;5032112;28;20237;-93
2022/01/09 11:43:31;;;;;;;4.90;2.53;;;4.90;99.90;;;;;;5037314;28;20236;-92
2022/01/09 11:46:02;;;;;;;9.23;3.70;;;5.00;99.90;;;;;;5035710;28;20312;-93
2022/01/09 11:48:59;;;;;;;6.50;2.67;;;5.00;99.90;;;;;;5035040;28;20225;-91
2022/01/09 11:51:35;;;;;;;5.23;2.77;;;4.90;99.90;;;;;;5035353;28;20215;-92
2022/01/09 11:54:10;;;;;;;6.83;3.10;;;5.00;99.90;;;;;;5026399;28;20231;-91
2022/01/09 11:56:52;;;;;;;10.50;3.80;;;5.00;99.90;;;;;;5031097;28;20208;-91
2022/01/09 12:00:07;;;;;;;10.47;4.00;;;5.10;99.90;;;;;;5024983;28;20240;-88
2022/01/09 12:02:44;;;;;;;6.97;3.97;;;5.10;99.90;;;;;;5013559;28;20211;-91
2022/01/09 12:05:28;;;;;;;11.97;4.37;;;5.20;99.90;;;;;;5020510;28;20216;-92
2022/01/09 12:08:09;;;;;;;9.70;4.17;;;5.20;99.90;;;;;;5013161;28;20233;-90
2022/01/09 12:10:38;;;;;;;7.00;3.60;;;5.30;99.90;;;;;;5020588;28;20209;-92
2022/01/09 12:13:40;;;;;;;9.70;2.93;;;5.30;99.90;;;;;;5021843;28;20217;-91
2022/01/09 12:16:08;;;;;;;12.33;5.17;;;5.20;99.90;;;;;;5018429;28;20201;-90
2022/01/09 12:18:42;;;;;;;9.57;4.23;;;5.20;99.90;;;;;;5011655;28;20302;-89
2022/01/09 12:21:37;;;;;;;9.00;4.07;;;5.20;99.90;;;;;;5020220;28;20209;-91
2022/01/09 12:24:39;;;;;;;12.10;3.90;;;5.20;99.90;;;;;;5020644;28;20206;-91
2022/01/09 12:27:35;;;;;;;10.77;3.37;;;5.20;99.90;;;;;;5022428;28;20308;-92
2022/01/09 12:30:09;;;;;;;9.50;3.40;;;5.10;99.90;;;;;;5017769;28;20202;-93
2022/01/09 12:32:44;;;;;;;10.70;4.77;;;5.10;99.90;;;;;;5027365;28;20239;-92
2022/01/09 12:35:19;;;;;;;14.57;4.97;;;5.10;99.90;;;;;;5020149;28;20204;-90
2022/01/09 12:37:55;;;;;;;9.47;4.13;;;5.10;99.90;;;;;;5022672;28;20297;-91
2022/01/09 12:40:54;;;;;;;8.87;2.87;;;5.10;99.90;;;;;;5018116;28;20206;-91
2022/01/09 12:43:33;;;;;;;6.93;2.90;;;5.00;99.90;;;;;;5014743;28;20209;-89
2022/01/09 12:46:30;;;;;;;8.40;2.90;;;5.00;99.90;;;;;;5012681;28;20227;-91
2022/01/09 12:49:07;;;;;;;8.53;2.47;;;5.00;99.90;;;;;;5000100;28;20277;-91
2022/01/09 12:51:45;;;;;;;10.70;3.20;;;5.00;99.90;;;;;;4990905;28;20302;-90
2022/01/09 12:54:17;;;;;;;8.40;4.43;;;5.00;99.90;;;;;;4990790;28;20210;-93
2022/01/09 12:56:54;;;;;;;6.53;3.60;;;5.00;99.90;;;;;;4999265;28;20225;-92
2022/01/09 12:59:24;;;;;;;11.03;4.10;;;5.00;99.90;;;;;;5004303;28;20221;-93
2022/01/09 13:01:58;;;;;;;9.93;4.30;;;5.10;99.90;;;;;;5001493;28;20226;-91
2022/01/09 13:04:33;;;;;;;18.67;6.87;;;5.10;99.90;;;;;;5005584;28;20199;-91
2022/01/09 13:07:05;;;;;;;13.43;6.13;;;5.20;99.90;;;;;;4987473;28;20317;-92
2022/01/09 13:09:34;;;;;;;14.50;4.87;;;5.30;99.90;;;;;;4993542;28;20213;-90